地図

経路データ

SID SEASON NUMBER BASIN SUBBASIN NAME ISO_TIME NATURE LAT LON WMO_WIND WMO_PRES WMO_AGENCY TRACK_TYPE DIST2LAND LANDFALL IFLAG USA_AGENCY USA_ATCF_ID USA_LAT USA_LON USA_RECORD USA_STATUS USA_WIND USA_PRES USA_SSHS USA_R34_NE USA_R34_SE USA_R34_SW USA_R34_NW USA_R50_NE USA_R50_SE USA_R50_SW USA_R50_NW USA_R64_NE USA_R64_SE USA_R64_SW USA_R64_NW USA_POCI USA_ROCI USA_RMW USA_EYE TOKYO_LAT TOKYO_LON TOKYO_GRADE TOKYO_WIND TOKYO_PRES TOKYO_R50_DIR TOKYO_R50_LONG TOKYO_R50_SHORT TOKYO_R30_DIR TOKYO_R30_LONG TOKYO_R30_SHORT TOKYO_LAND CMA_LAT CMA_LON CMA_CAT CMA_WIND CMA_PRES HKO_LAT HKO_LON HKO_CAT HKO_WIND HKO_PRES NEWDELHI_LAT NEWDELHI_LON NEWDELHI_GRADE NEWDELHI_WIND NEWDELHI_PRES NEWDELHI_CI NEWDELHI_DP NEWDELHI_POCI REUNION_LAT REUNION_LON REUNION_TYPE REUNION_WIND REUNION_PRES REUNION_TNUM REUNION_CI REUNION_RMW REUNION_R34_NE REUNION_R34_SE REUNION_R34_SW REUNION_R34_NW REUNION_R50_NE REUNION_R50_SE REUNION_R50_SW REUNION_R50_NW REUNION_R64_NE REUNION_R64_SE REUNION_R64_SW REUNION_R64_NW BOM_LAT BOM_LON BOM_TYPE BOM_WIND BOM_PRES BOM_TNUM BOM_CI BOM_RMW BOM_R34_NE BOM_R34_SE BOM_R34_SW BOM_R34_NW BOM_R50_NE BOM_R50_SE BOM_R50_SW BOM_R50_NW BOM_R64_NE BOM_R64_SE BOM_R64_SW BOM_R64_NW BOM_ROCI BOM_POCI BOM_EYE BOM_POS_METHOD BOM_PRES_METHOD NADI_LAT NADI_LON NADI_CAT NADI_WIND NADI_PRES WELLINGTON_LAT WELLINGTON_LON WELLINGTON_WIND WELLINGTON_PRES DS824_LAT DS824_LON DS824_STAGE DS824_WIND DS824_PRES TD9636_LAT TD9636_LON TD9636_STAGE TD9636_WIND TD9636_PRES TD9635_LAT TD9635_LON TD9635_WIND TD9635_PRES TD9635_ROCI NEUMANN_LAT NEUMANN_LON NEUMANN_CLASS NEUMANN_WIND NEUMANN_PRES MLC_LAT MLC_LON MLC_CLASS MLC_WIND MLC_PRES USA_GUST BOM_GUST BOM_GUST_PER REUNION_GUST REUNION_GUST_PER USA_SEAHGT USA_SEARAD_NE USA_SEARAD_SE USA_SEARAD_SW USA_SEARAD_NW STORM_SPEED STORM_DIR
1922014S16054 1922 3 SI MM NOT_NAMED 1922-01-14 06:00:00 NR -15.9000 53.6000 reunion main 336 336 _____O________ -1 -15.9000 53.6000 99 9.90000 1 0
1922014S16054 1922 3 SI MM NOT_NAMED 1922-01-14 09:00:00 NR -15.8747 53.6165 main 336 336 _____P________ -1 -15.8747 53.6165 99 1 0
1922014S16054 1922 3 SI MM NOT_NAMED 1922-01-14 12:00:00 NR -15.8554 53.6266 main 336 335 _____P________ -1 -15.8554 53.6266 99 0 0
1922014S16054 1922 3 SI MM NOT_NAMED 1922-01-14 15:00:00 NR -15.8480 53.6241 main 335 335 _____P________ -1 -15.8480 53.6241 99 2 94
1922014S16054 1922 3 SI MM NOT_NAMED 1922-01-14 18:00:00 NR -15.8669 53.8021 main 357 357 _____P____O___ -1 -15.8587 53.6026 99 -15.9000 54.6000 2 2 115
1922014S16054 1922 3 SI MM NOT_NAMED 1922-01-14 21:00:00 NR -15.9180 53.7820 main 357 347 _____P____P___ -1 -15.8932 53.5558 99 -15.9677 54.2344 2 2 229
1922014S16054 1922 3 SI MM NOT_NAMED 1922-01-15 00:00:00 NR -15.9964 53.6478 main 338 330 _____P____P___ -1 -15.9576 53.4774 99 -16.0481 53.8750 2 4 240
1922014S16054 1922 3 SI MM NOT_NAMED 1922-01-15 03:00:00 NR -16.1062 53.4445 main 320 302 _____P____P___ -1 -16.0579 53.3610 99 -16.1544 53.5281 2 5 239
1922014S16054 1922 3 SI MM NOT_NAMED 1922-01-15 06:00:00 TS -16.2556 53.2000 reunion main 305 284 _____O___OO___ -1 -16.2000 53.2000 99 9.90000 -16.3000 53.2000 TC 35 -16.3000 53.2000 2 6 234
1922014S16054 1922 3 SI MM NOT_NAMED 1922-01-15 09:00:00 TS -16.4634 52.9326 main 284 270 _____P___PP___ -1 -16.3877 52.9910 99 -16.5526 52.8902 TC 35 -16.4945 52.8953 2 7 229
1922014S16054 1922 3 SI MM NOT_NAMED 1922-01-15 12:00:00 TS -16.7087 52.6564 main 274 255 _____P___OP___ -1 -16.6166 52.7428 99 -16.8000 52.6000 TC 35 -16.7323 52.6124 2 7 226
1922014S16054 1922 3 SI MM NOT_NAMED 1922-01-15 15:00:00 TS -16.9755 52.3860 main 259 243 _____P___PP___ -1 -16.8803 52.4672 99 -17.0424 52.3424 TC 35 -17.0039 52.3483 2 8 223
1922014S16054 1922 3 SI MM NOT_NAMED 1922-01-15 18:00:00 TS -17.2575 52.1254 main 249 236 _____P___OO___ -1 -17.1724 52.1761 99 -17.3000 52.1000 TC 35 -17.3000 52.1000 2 8 221
1922014S16054 1922 3 SI MM NOT_NAMED 1922-01-15 21:00:00 TS -17.5597 51.8575 main 240 221 _____P___PP___ -1 -17.4866 51.8817 99 -17.5850 51.8425 TC 35 -17.6074 51.8484 2 8 219
1922014S16054 1922 3 SI MM NOT_NAMED 1922-01-16 00:00:00 TS -17.8839 51.6028 main 223 205 _____P___OP___ -1 -17.8167 51.5960 99 -17.9000 51.6000 TC 35 -17.9349 51.6125 2 8 215
1922014S16054 1922 3 SI MM NOT_NAMED 1922-01-16 03:00:00 TS -18.2255 51.3705 main 208 191 _____P___PP___ -1 -18.1566 51.3313 99 -18.2500 51.3850 TC 35 -18.2700 51.3953 2 8 211
1922014S16054 1922 3 SI MM NOT_NAMED 1922-01-16 06:00:00 TS -18.5667 51.1667 reunion main 195 181 _____O___OO___ -1 -18.5000 51.1000 99 9.90000 -18.6000 51.2000 TC 35 -18.6000 51.2000 2 8 209
1922014S16054 1922 3 SI MM NOT_NAMED 1922-01-16 09:00:00 TS -18.8800 50.9910 main 185 177 _____P___PP___ -1 -18.8375 50.9186 99 -18.9075 51.0424 TC 35 -18.8949 51.0120 2 7 206
1922014S16054 1922 3 SI MM NOT_NAMED 1922-01-16 12:00:00 TS -19.1903 50.8369 main 177 173 _____P___OP___ -1 -19.1860 50.7634 99 -19.2000 50.9000 TC 35 -19.1849 50.8473 2 7 204
1922014S16054 1922 3 SI MM NOT_NAMED 1922-01-16 15:00:00 TS -19.5050 50.6954 main 177 171 _____P___PP___ -1 -19.5399 50.6347 99 -19.4925 50.7425 TC 35 -19.4825 50.7089 2 7 201
1922014S16054 1922 3 SI MM NOT_NAMED 1922-01-16 18:00:00 TS -19.8313 50.5776 main 180 175 _____P___OO___ -1 -19.8939 50.5328 99 -19.8000 50.6000 TC 35 -19.8000 50.6000 2 7 196
1922014S16054 1922 3 SI MM NOT_NAMED 1922-01-16 21:00:00 TS -20.1837 50.4802 main 178 170 _____P___PP___ -1 -20.2424 50.4580 99 -20.1350 50.4775 TC 35 -20.1737 50.5050 2 7 192
1922014S16054 1922 3 SI MM NOT_NAMED 1922-01-17 00:00:00 TS -20.5483 50.4169 main 176 176 _____P___OP___ -1 -20.5799 50.4107 99 -20.5000 50.4000 TC 35 -20.5649 50.4400 2 7 186
1922014S16054 1922 3 SI MM NOT_NAMED 1922-01-17 03:00:00 TS -20.9216 50.3937 main 193 193 _____P___PP___ -1 -20.9010 50.3913 99 -20.9150 50.3849 TC 35 -20.9487 50.4050 2 7 182
1922014S16054 1922 3 SI MM NOT_NAMED 1922-01-17 06:00:00 TS -21.2667 50.4000 reunion main 210 210 _____O___OO___ -1 -21.2000 50.4000 99 9.90000 -21.3000 50.4000 TC 35 -21.3000 50.4000 2 6 0
1922014S16054 1922 3 SI MM NOT_NAMED 1922-01-17 09:00:00 TS -21.5436 50.3920 main 214 214 _____P___PP___ -1 -21.4602 50.3901 99 -21.5725 50.3851 TC 35 -21.5980 50.4009 2 5 177
1922014S16054 1922 3 SI MM NOT_NAMED 1922-01-17 12:00:00 TS -21.7865 50.4132 main 221 221 _____P___OP___ -1 -21.6996 50.4073 99 -21.8000 50.4000 TC 35 -21.8598 50.4325 2 5 171
1922014S16054 1922 3 SI MM NOT_NAMED 1922-01-17 15:00:00 TS -22.0237 50.4763 main 236 236 _____P___PP___ -1 -21.9217 50.4536 99 -22.0575 50.4775 TC 35 -22.0917 50.4979 2 5 162
1922014S16054 1922 3 SI MM NOT_NAMED 1922-01-17 18:00:00 TS -22.2434 50.5771 main 251 251 _____P___OO___ -1 -22.1302 50.5312 99 -22.3000 50.6000 TC 35 -22.3000 50.6000 2 5 154
1922014S16054 1922 3 SI MM NOT_NAMED 1922-01-17 21:00:00 TS -22.4440 50.6948 main 266 266 _____P___PP___ -1 -22.3288 50.6425 99 -22.5150 50.7350 TC 35 -22.4882 50.7070 2 5 147
1922014S16054 1922 3 SI MM NOT_NAMED 1922-01-18 00:00:00 TS -22.6260 50.8476 main 282 282 _____P___OP___ -1 -22.5209 50.7896 99 -22.7000 50.9000 TC 35 -22.6570 50.8532 2 5 138
1922014S16054 1922 3 SI MM NOT_NAMED 1922-01-18 03:00:00 TS -22.7916 51.0309 main 308 308 _____P___PP___ -1 -22.7101 50.9746 99 -22.8424 51.0702 TC 35 -22.8224 51.0478 2 5 131
1922014S16054 1922 3 SI MM NOT_NAMED 1922-01-18 06:00:00 TS -22.9667 51.2667 reunion main 345 345 _____O___OO___ -1 -22.9000 51.2000 99 9.90000 -23.0000 51.3000 TC 35 -23.0000 51.3000 2 6 130
1922014S16054 1922 3 SI MM NOT_NAMED 1922-01-18 09:00:00 TS -23.1883 51.5508 main 382 382 _____P___PP___ -1 -23.0952 51.4075 99 -23.2425 51.6199 TC 35 -23.2273 51.6250 2 7 128
1922014S16054 1922 3 SI MM NOT_NAMED 1922-01-18 12:00:00 TS -23.4175 51.8855 main 419 409 _____P___OP___ -1 -23.2871 51.6523 99 -23.5000 52.0000 TC 35 -23.4655 52.0041 2 8 125
1922014S16054 1922 3 SI MM NOT_NAMED 1922-01-18 15:00:00 TS -23.6297 52.2505 main 401 393 _____P___PP___ -1 -23.4781 51.9376 99 -23.7151 52.4075 TC 35 -23.6960 52.4063 2 8 121
1922014S16054 1922 3 SI MM NOT_NAMED 1922-01-18 18:00:00 TS -23.8235 52.6224 main 393 380 _____P___OO___ -1 -23.6705 52.2672 99 -23.9000 52.8000 TC 35 -23.9000 52.8000 2 7 119
1922014S16054 1922 3 SI MM NOT_NAMED 1922-01-18 21:00:00 TS -23.9821 52.9336 main 389 376 _____P___PP___ -1 -23.8667 52.6444 99 -24.0648 53.1077 TC 35 -24.0148 53.0488 2 7 118
1922014S16054 1922 3 SI MM NOT_NAMED 1922-01-19 00:00:00 TS -24.1258 53.2567 main 374 368 _____P___OP___ -1 -24.0690 53.0731 99 -24.2000 53.4000 TC 35 -24.1085 53.2970 2 7 114
1922014S16054 1922 3 SI MM NOT_NAMED 1922-01-19 03:00:00 TS -24.2572 53.6132 main 377 364 _____P___PP___ -1 -24.2794 53.5570 99 -24.2691 53.6610 TC 35 -24.2232 53.6215 2 8 112
1922014S16054 1922 3 SI MM NOT_NAMED 1922-01-19 06:00:00 TS -24.4333 54.1000 reunion main 367 367 _____O___OO___ -1 -24.5000 54.1000 99 9.90000 -24.4000 54.1000 TC 35 -24.4000 54.1000 2 12 113
1922014S16054 1922 3 SI MM NOT_NAMED 1922-01-19 09:00:00 TS -24.7304 54.8538 main 375 375 _____P___PP___ -1 -24.7649 54.7730 99 -24.7131 54.9169 TC 35 -24.7133 54.8716 2 16 113
1922014S16054 1922 3 SI MM NOT_NAMED 1922-01-19 12:00:00 TS -25.0746 55.7394 main 413 413 _____P___OP___ -1 -25.0411 55.5210 99 -25.1000 55.9000 TC 35 -25.0827 55.7973 2 18 113
1922014S16054 1922 3 SI MM NOT_NAMED 1922-01-19 15:00:00 TS -25.4177 56.6435 main 458 458 _____P___PP___ -1 -25.3203 56.3182 99 -25.4726 56.8372 TC 35 -25.4602 56.7750 2 17 112
1922014S16054 1922 3 SI MM NOT_NAMED 1922-01-19 18:00:00 TS -25.7314 57.5127 main 518 518 _____P___OO___ -1 -25.5943 57.1381 99 -25.8000 57.7000 TC 35 -25.8000 57.7000 2 16 111
1922014S16054 1922 3 SI MM NOT_NAMED 1922-01-19 21:00:00 TS -25.9824 58.2774 main 582 582 _____P___PP___ -1 -25.8558 57.9538 99 -26.0216 58.3883 TC 35 -26.0697 58.4901 2 14 109
1922014S16054 1922 3 SI MM NOT_NAMED 1922-01-20 00:00:00 TS -26.1831 58.9432 main 631 631 _____P___OP___ -1 -26.0980 58.7379 99 -26.2000 59.0000 TC 35 -26.2797 59.1601 2 12 108
1922014S16054 1922 3 SI MM NOT_NAMED 1922-01-20 03:00:00 TS -26.3682 59.5779 main 687 687 _____P___PP___ -1 -26.3146 59.4626 99 -26.3934 59.6367 TC 35 -26.4501 59.7498 2 12 108
1922014S16054 1922 3 SI MM NOT_NAMED 1922-01-20 06:00:00 TS -26.5333 60.1667 reunion main 717 717 _____O___OO___ -1 -26.5000 60.1000 99 9.90000 -26.6000 60.3000 TC 35 -26.6000 60.3000 2 10 107
1922014S16054 1922 3 SI MM NOT_NAMED 1922-01-20 09:00:00 NR -26.6506 60.6292 main 753 753 _____P________ -1 -26.6506 60.6292 99 TC 2 8 107
1922014S16054 1922 3 SI MM NOT_NAMED 1922-01-20 12:00:00 NR -26.7701 61.0570 main 784 784 _____P________ -1 -26.7701 61.0570 99 2 7 107
1922014S16054 1922 3 SI MM NOT_NAMED 1922-01-20 15:00:00 NR -26.8637 61.3978 main 808 808 _____P________ -1 -26.8637 61.3978 99 2 6 107
1922014S16054 1922 3 SI MM NOT_NAMED 1922-01-20 18:00:00 NR -26.9359 61.6658 main 822 822 _____P________ -1 -26.9359 61.6658 99 4 107
1922014S16054 1922 3 SI MM NOT_NAMED 1922-01-20 21:00:00 NR -26.9914 61.8754 main 842 842 _____P________ -1 -26.9914 61.8754 99 3 106
1922014S16054 1922 3 SI MM NOT_NAMED 1922-01-21 00:00:00 NR -27.0345 62.0412 main 847 847 _____P________ -1 -27.0345 62.0413 99 3 106
1922014S16054 1922 3 SI MM NOT_NAMED 1922-01-21 03:00:00 NR -27.0693 62.1779 main 867 867 _____P________ -1 -27.0693 62.1779 99 2 106
1922014S16054 1922 3 SI MM NOT_NAMED 1922-01-21 06:00:00 NR -27.1000 62.3000 reunion main 873 _____O________ -1 -27.1000 62.3000 99 9.90000 2 105

IBTrACS Databaseについて

本データベースは、米国NOAAが公開する1842年以降の世界の熱帯低気圧のベストトラックデータアーカイブInternational Best Track Archive for Climate Stewardship (IBTrACS)を、ウェブで閲覧しやすい形式に変換したものです。

最終更新日:2021-10-27